Time;durP1;ratioP1;P1;durP2;ratioP2;P2;SDS_P1;SDS_P2;PMS_P1;PMS_P2;Temp;Humidity;BMP_temperature;BMP_pressure;BME280_temperature;BME280_humidity;BME280_pressure;Samples;Min_cycle;Max_cycle;Signal;HPM_P1;HPM_P2
2022/06/02 00:00:07;;;;;;;7.82;6.88;;;11.10;99.90;;;;;;5111896;28;20130;-64
2022/06/02 00:02:42;;;;;;;8.18;7.18;;;11.00;99.90;;;;;;5093673;28;20055;-63
2022/06/02 00:05:34;;;;;;;7.80;7.00;;;11.00;99.90;;;;;;5112125;28;20514;-63
2022/06/02 00:08:19;;;;;;;9.57;7.10;;;11.00;99.90;;;;;;5111678;28;20191;-62
2022/06/02 00:11:08;;;;;;;9.15;7.10;;;10.90;99.90;;;;;;5093412;28;20043;-62
2022/06/02 00:13:48;;;;;;;11.05;7.90;;;10.90;99.90;;;;;;5063447;28;20052;-64
2022/06/02 00:16:25;;;;;;;9.93;7.95;;;10.90;99.90;;;;;;5112320;28;20069;-62
2022/06/02 00:18:59;;;;;;;10.68;7.93;;;10.90;99.90;;;;;;5093176;28;20043;-62
2022/06/02 00:21:47;;;;;;;9.98;7.07;;;10.90;99.90;;;;;;5112104;28;20047;-62
2022/06/02 00:24:44;;;;;;;11.15;8.20;;;10.90;99.90;;;;;;5111769;28;20047;-64
2022/06/02 00:27:19;;;;;;;8.82;7.93;;;10.80;99.90;;;;;;5055161;28;20055;-63
2022/06/02 00:30:08;;;;;;;11.90;8.15;;;10.90;99.90;;;;;;5111241;28;20039;-63
2022/06/02 00:33:01;;;;;;;12.57;8.52;;;10.80;99.90;;;;;;5111042;28;20039;-63
2022/06/02 00:35:45;;;;;;;10.20;7.88;;;10.80;99.90;;;;;;5111491;28;20055;-63
2022/06/02 00:38:21;;;;;;;10.40;8.50;;;10.80;99.90;;;;;;5111865;28;20057;-63
2022/06/02 00:40:47;;;;;;;10.55;8.18;;;10.70;99.90;;;;;;5111586;28;20170;-62
2022/06/02 00:43:25;;;;;;;11.13;8.35;;;10.70;99.90;;;;;;5093377;28;20191;-64
2022/06/02 00:46:16;;;;;;;10.77;8.25;;;10.70;99.90;;;;;;5111532;28;20126;-63
2022/06/02 00:49:00;;;;;;;11.60;8.68;;;10.70;99.90;;;;;;5092878;28;20142;-63
2022/06/02 00:51:41;;;;;;;10.53;9.20;;;10.60;99.90;;;;;;5111728;28;20082;-62
2022/06/02 00:57:32;;;;;;;9.70;8.65;;;10.60;99.90;;;;;;5111496;28;20436;-66
2022/06/02 01:00:11;;;;;;;11.37;8.37;;;10.60;99.90;;;;;;5115175;28;20043;-63
2022/06/02 01:02:51;;;;;;;11.82;8.40;;;10.60;99.90;;;;;;5096883;28;20626;-64
2022/06/02 01:05:29;;;;;;;11.40;8.63;;;10.60;99.90;;;;;;5115243;28;20047;-63
2022/06/02 01:08:15;;;;;;;9.07;8.18;;;10.60;99.90;;;;;;5097728;28;20094;-64
2022/06/02 01:11:13;;;;;;;10.05;8.18;;;10.60;99.90;;;;;;5114209;28;20129;-64
2022/06/02 01:13:54;;;;;;;9.88;7.93;;;10.60;99.90;;;;;;5058386;28;20522;-64
2022/06/02 01:16:47;;;;;;;10.05;8.57;;;10.50;99.90;;;;;;5096681;28;20050;-65
2022/06/02 01:19:32;;;;;;;11.40;8.73;;;10.50;99.90;;;;;;5114980;28;20051;-63
2022/06/02 01:22:06;;;;;;;10.15;8.57;;;10.40;99.90;;;;;;5114727;28;20051;-63
2022/06/02 01:25:07;;;;;;;10.10;8.43;;;10.40;99.90;;;;;;5114795;28;20051;-62
2022/06/02 01:28:14;;;;;;;9.32;8.32;;;10.40;99.90;;;;;;5011725;28;20514;-63
2022/06/02 01:30:59;;;;;;;10.27;9.20;;;10.40;99.90;;;;;;5096550;28;20039;-63
2022/06/02 01:33:25;;;;;;;;;;;10.40;99.90;;;;;;5115122;28;20396;-64
2022/06/02 01:35:58;;;;;;;11.07;8.27;;;10.30;99.90;;;;;;5096068;28;20011;-62
2022/06/02 01:38:46;;;;;;;10.07;8.30;;;10.30;99.90;;;;;;5096200;28;20047;-64
2022/06/02 01:41:42;;;;;;;12.13;9.55;;;10.30;99.90;;;;;;5114527;28;20043;-63
2022/06/02 01:44:20;;;;;;;10.35;8.25;;;10.20;99.90;;;;;;5096449;28;20047;-63
2022/06/02 01:47:02;;;;;;;9.63;8.63;;;10.20;99.90;;;;;;5113936;28;20365;-63
2022/06/02 01:49:56;;;;;;;10.32;8.18;;;10.20;99.90;;;;;;5114596;28;20086;-63
2022/06/02 01:52:40;;;;;;;10.85;8.68;;;10.20;99.90;;;;;;5096195;28;20059;-65
2022/06/02 01:55:35;;;;;;;11.13;8.50;;;10.10;99.90;;;;;;5113602;28;20445;-63
2022/06/02 01:58:40;;;;;;;9.05;7.82;;;10.10;99.90;;;;;;5044596;28;20044;-63
2022/06/02 02:01:20;;;;;;;10.63;8.30;;;10.10;99.90;;;;;;5112566;28;20271;-66
2022/06/02 02:04:03;;;;;;;9.02;7.88;;;10.00;99.90;;;;;;5113810;28;20035;-64
2022/06/02 02:06:35;;;;;;;11.70;8.15;;;10.00;99.90;;;;;;5114036;28;20042;-62
2022/06/02 02:09:15;;;;;;;9.45;7.93;;;10.00;99.90;;;;;;5113797;28;20105;-63
2022/06/02 02:11:56;;;;;;;9.00;7.63;;;10.00;99.90;;;;;;5113349;28;20400;-63
2022/06/02 02:14:46;;;;;;;9.02;8.10;;;10.00;99.90;;;;;;5113975;28;20047;-63
2022/06/02 02:17:20;;;;;;;9.77;8.05;;;9.90;99.90;;;;;;5113965;28;20123;-63
2022/06/02 02:20:08;;;;;;;12.43;8.25;;;9.90;99.90;;;;;;5113695;28;20043;-65
2022/06/02 02:22:52;;;;;;;12.48;8.55;;;9.90;99.90;;;;;;5113819;28;20047;-62
2022/06/02 02:25:46;;;;;;;11.43;7.97;;;9.90;99.90;;;;;;5113673;28;20040;-63
2022/06/02 02:28:19;;;;;;;9.48;7.28;;;9.80;99.90;;;;;;5095423;28;20055;-64
2022/06/02 02:30:45;;;;;;;10.52;7.28;;;9.80;99.90;;;;;;5113379;28;20044;-64
2022/06/02 02:33:28;;;;;;;8.95;7.30;;;9.80;99.90;;;;;;5113563;28;20100;-64
2022/06/02 02:36:38;;;;;;;9.75;7.40;;;9.80;99.90;;;;;;5095082;28;20070;-64
2022/06/02 02:39:27;;;;;;;9.18;7.50;;;9.80;99.90;;;;;;5094959;28;20561;-63
2022/06/02 02:41:57;;;;;;;9.13;7.45;;;9.80;99.90;;;;;;5112653;28;20035;-63
2022/06/02 02:44:31;;;;;;;8.50;7.32;;;9.80;99.90;;;;;;5095149;28;20083;-63
2022/06/02 02:47:21;;;;;;;8.80;7.28;;;9.80;99.90;;;;;;5094898;28;20039;-63
2022/06/02 02:50:17;;;;;;;8.52;6.90;;;9.70;99.90;;;;;;5113155;28;20104;-69
2022/06/02 02:53:06;;;;;;;9.02;6.82;;;9.80;99.90;;;;;;5113216;28;20338;-63
2022/06/02 02:55:37;;;;;;;8.73;7.28;;;9.70;99.90;;;;;;5113348;28;20417;-64
2022/06/02 02:58:34;;;;;;;8.43;6.85;;;9.70;99.90;;;;;;5094936;28;20044;-62
2022/06/02 03:01:03;;;;;;;8.48;6.55;;;9.70;99.90;;;;;;5112809;28;20096;-63
2022/06/02 03:04:07;;;;;;;8.10;6.40;;;9.70;99.90;;;;;;5112894;28;20069;-64
2022/06/02 03:06:37;;;;;;;7.40;6.15;;;9.80;99.90;;;;;;5112909;28;20048;-63
2022/06/02 03:09:10;;;;;;;8.82;6.03;;;9.80;99.90;;;;;;5112563;28;20052;-62
2022/06/02 03:11:50;;;;;;;7.80;5.93;;;9.70;99.90;;;;;;5112748;28;20130;-63
2022/06/02 03:14:40;;;;;;;8.02;5.78;;;9.70;99.90;;;;;;5112476;28;20134;-63
2022/06/02 03:17:48;;;;;;;7.93;5.82;;;9.70;99.90;;;;;;5111932;28;20465;-63
2022/06/02 03:20:49;;;;;;;9.45;6.32;;;9.80;99.90;;;;;;5098241;28;20052;-63
2022/06/02 03:23:27;;;;;;;9.35;6.63;;;9.70;99.90;;;;;;5111343;28;20103;-63
2022/06/02 03:26:24;;;;;;;9.45;6.30;;;9.80;99.90;;;;;;5093924;28;20445;-64
2022/06/02 03:29:06;;;;;;;7.30;6.00;;;9.80;99.90;;;;;;5112475;28;20039;-63
2022/06/02 03:31:58;;;;;;;8.25;6.38;;;9.80;99.90;;;;;;5112507;28;20043;-63
2022/06/02 03:34:59;;;;;;;6.68;5.68;;;9.80;99.90;;;;;;5112368;28;20048;-63
2022/06/02 03:38:02;;;;;;;8.35;6.20;;;9.70;99.90;;;;;;5112373;28;20043;-64
2022/06/02 03:40:28;;;;;;;10.15;6.95;;;9.80;99.90;;;;;;5112218;28;20047;-65
2022/06/02 03:43:33;;;;;;;9.40;6.97;;;9.70;99.90;;;;;;5111900;28;20066;-63
2022/06/02 03:46:02;;;;;;;8.38;6.97;;;9.70;99.90;;;;;;5089047;28;20083;-63
2022/06/02 03:48:54;;;;;;;8.50;6.85;;;9.70;99.90;;;;;;5112537;28;20062;-63
2022/06/02 03:51:46;;;;;;;9.43;6.85;;;9.70;99.90;;;;;;5093926;28;20082;-62
2022/06/02 03:54:25;;;;;;;11.98;6.93;;;9.70;99.90;;;;;;5111695;28;20050;-62
2022/06/02 03:57:19;;;;;;;10.50;6.65;;;9.90;99.90;;;;;;5094034;28;20047;-63
2022/06/02 03:59:59;;;;;;;7.40;6.35;;;9.70;99.90;;;;;;5112029;28;20105;-63
2022/06/02 04:02:39;;;;;;;9.23;6.40;;;9.70;99.90;;;;;;5111972;28;20112;-63
2022/06/02 04:05:16;;;;;;;9.43;6.07;;;9.70;99.90;;;;;;5111489;28;20055;-63
2022/06/02 04:07:44;;;;;;;6.50;5.30;;;9.80;99.90;;;;;;5111438;28;20477;-63
2022/06/02 04:10:23;;;;;;;9.15;5.45;;;9.70;99.90;;;;;;5092742;28;20058;-63
2022/06/02 04:16:10;;;;;;;7.95;5.20;;;9.80;99.90;;;;;;5111667;28;20039;-64
2022/06/02 04:18:58;;;;;;;7.53;5.90;;;9.80;99.90;;;;;;5111819;28;20048;-62
2022/06/02 04:21:52;;;;;;;9.20;6.38;;;9.90;99.90;;;;;;5111333;28;20493;-64
2022/06/02 04:24:29;;;;;;;7.07;5.22;;;9.90;99.90;;;;;;5093447;28;20047;-62
2022/06/02 04:27:11;;;;;;;8.85;5.32;;;10.00;99.90;;;;;;5111173;28;20235;-63
2022/06/02 04:29:55;;;;;;;7.00;5.28;;;10.00;99.90;;;;;;5111644;28;20052;-62
2022/06/02 04:33:03;;;;;;;8.38;5.45;;;10.10;99.90;;;;;;5093263;28;20090;-64
2022/06/02 04:35:54;;;;;;;6.43;4.75;;;10.20;99.90;;;;;;5101965;28;20404;-62
2022/06/02 04:38:45;;;;;;;10.30;4.80;;;10.30;99.90;;;;;;5103025;28;20059;-63
2022/06/02 04:41:38;;;;;;;6.93;5.10;;;10.50;99.90;;;;;;5115582;28;20400;-63
2022/06/02 04:44:32;;;;;;;6.10;4.43;;;10.70;99.90;;;;;;5097064;28;20416;-62
2022/06/02 04:47:16;;;;;;;6.75;4.75;;;11.10;99.90;;;;;;5115628;28;20086;-61
2022/06/02 04:49:53;;;;;;;6.13;3.53;;;11.80;99.90;;;;;;5115568;28;20055;-64
2022/06/02 04:52:37;;;;;;;6.03;4.53;;;12.70;99.90;;;;;;5115223;28;20050;-63
2022/06/02 04:55:03;;;;;;;7.55;4.07;;;13.60;99.90;;;;;;5096670;28;20055;-62
2022/06/02 04:57:46;;;;;;;5.05;3.83;;;14.30;99.90;;;;;;5115719;28;20048;-64
2022/06/02 05:00:30;;;;;;;4.95;3.90;;;15.00;99.90;;;;;;5096700;28;20044;-63
2022/06/02 05:03:23;;;;;;;4.68;3.38;;;15.70;99.90;;;;;;5115158;28;20051;-63
2022/06/02 05:06:03;;;;;;;4.13;3.20;;;16.40;99.90;;;;;;5114880;28;20494;-62
2022/06/02 05:08:42;;;;;;;4.18;3.05;;;17.00;99.90;;;;;;5079986;28;20061;-62
2022/06/02 05:11:34;;;;;;;4.68;3.30;;;17.60;99.90;;;;;;5114601;28;20126;-64
2022/06/02 05:14:24;;;;;;;4.93;2.97;;;17.90;99.90;;;;;;5096890;28;20086;-65
2022/06/02 05:16:56;;;;;;;3.95;2.80;;;18.30;99.90;;;;;;5115033;28;20358;-63
2022/06/02 05:20:14;;;;;;;5.68;3.03;;;18.80;99.90;;;;;;5114797;28;20385;-63
2022/06/02 05:23:15;;;;;;;5.43;2.60;;;18.90;99.90;;;;;;5063162;28;20184;-62
2022/06/02 05:25:46;;;;;;;4.22;2.90;;;19.50;99.90;;;;;;5078951;28;20484;-63
2022/06/02 05:28:30;;;;;;;3.72;2.40;;;19.90;98.60;;;;;;5114370;28;20203;-64
2022/06/02 05:31:18;;;;;;;4.82;2.53;;;20.60;98.40;;;;;;5114691;28;20043;-64
2022/06/02 05:34:01;;;;;;;3.90;2.38;;;21.10;97.00;;;;;;5096294;28;20052;-63
2022/06/02 05:36:47;;;;;;;5.45;2.40;;;21.40;96.10;;;;;;5095664;28;20511;-63
2022/06/02 05:39:31;;;;;;;2.90;2.22;;;21.70;96.00;;;;;;5096392;28;20048;-62
2022/06/02 05:42:22;;;;;;;3.35;2.47;;;21.70;94.80;;;;;;5096423;28;20043;-63
2022/06/02 05:45:24;;;;;;;4.05;2.20;;;22.00;95.90;;;;;;5113361;28;20055;-65
2022/06/02 05:48:29;;;;;;;3.78;2.28;;;22.30;94.30;;;;;;5012804;28;20060;-63
2022/06/02 05:51:25;;;;;;;5.10;2.00;;;22.60;94.00;;;;;;5113288;28;20101;-63
2022/06/02 05:54:09;;;;;;;3.47;2.10;;;22.60;93.30;;;;;;5114260;28;20039;-63
2022/06/02 05:57:00;;;;;;;4.35;2.10;;;22.90;93.60;;;;;;5095814;28;20074;-64
2022/06/02 05:59:52;;;;;;;5.38;2.13;;;22.80;93.30;;;;;;5113721;28;20069;-63
2022/06/02 06:02:18;;;;;;;3.53;1.70;;;22.70;93.20;;;;;;5113812;28;20047;-64
2022/06/02 06:05:13;;;;;;;2.78;1.80;;;22.50;92.70;;;;;;5095856;28;20043;-63
2022/06/02 06:07:54;;;;;;;4.22;1.88;;;22.90;92.70;;;;;;5097034;28;20493;-64
2022/06/02 06:10:58;;;;;;;3.38;1.90;;;23.10;92.60;;;;;;5113813;28;20086;-64
2022/06/02 06:13:42;;;;;;;3.67;1.90;;;22.90;92.20;;;;;;5095781;28;20047;-65
2022/06/02 06:16:39;;;;;;;4.72;2.08;;;22.90;92.30;;;;;;5095489;28;20280;-64
2022/06/02 06:19:26;;;;;;;3.60;2.00;;;23.30;92.20;;;;;;5095701;28;20056;-65
2022/06/02 06:22:20;;;;;;;4.13;1.70;;;23.50;91.60;;;;;;5113828;28;20055;-65
2022/06/02 06:25:15;;;;;;;4.43;2.10;;;24.20;91.20;;;;;;5095419;28;20079;-63
2022/06/02 06:27:59;;;;;;;4.35;2.10;;;23.70;90.80;;;;;;5095175;28;20048;-63
2022/06/02 06:30:34;;;;;;;4.30;2.03;;;23.70;90.90;;;;;;5094959;28;20043;-63
2022/06/02 06:33:02;;;;;;;3.33;1.70;;;23.60;91.10;;;;;;5113472;28;20104;-63
2022/06/02 06:35:49;;;;;;;5.47;2.08;;;23.70;90.70;;;;;;5113007;28;20049;-63
2022/06/02 06:38:27;;;;;;;2.67;1.60;;;23.80;90.40;;;;;;5094947;28;20079;-67
2022/06/02 06:41:14;;;;;;;5.07;1.70;;;24.20;90.30;;;;;;5113220;28;20059;-65
2022/06/02 06:43:52;;;;;;;2.35;1.63;;;24.30;90.10;;;;;;5113023;28;20096;-64
2022/06/02 06:46:29;;;;;;;4.53;1.60;;;24.60;89.90;;;;;;5112097;28;20400;-64
2022/06/02 06:49:09;;;;;;;3.83;1.70;;;25.00;88.80;;;;;;5094967;28;20134;-63
2022/06/02 06:51:44;;;;;;;4.10;2.05;;;25.20;88.00;;;;;;5112566;28;20051;-65
2022/06/02 06:54:24;;;;;;;2.85;1.60;;;25.20;87.50;;;;;;5112988;28;20122;-63
2022/06/02 06:57:07;;;;;;;4.47;1.67;;;24.90;87.30;;;;;;5112898;28;20174;-64
2022/06/02 06:59:50;;;;;;;3.42;1.35;;;24.00;86.90;;;;;;5112507;28;20055;-67
2022/06/02 07:02:35;;;;;;;2.60;1.40;;;23.20;88.40;;;;;;5112930;28;20060;-64
2022/06/02 07:05:22;;;;;;;3.17;1.58;;;22.10;90.40;;;;;;5077995;28;20134;-63
2022/06/02 07:08:13;;;;;;;3.58;1.95;;;21.30;91.40;;;;;;5112901;28;20043;-64
2022/06/02 07:10:58;;;;;;;3.13;1.50;;;20.60;92.40;;;;;;5112660;28;20375;-63
2022/06/02 07:13:51;;;;;;;3.22;1.60;;;20.20;92.80;;;;;;5112475;28;20044;-64
2022/06/02 07:16:27;;;;;;;3.28;1.73;;;20.20;93.60;;;;;;5112455;28;20036;-63
2022/06/02 07:18:52;;;;;;;5.53;1.90;;;20.20;93.30;;;;;;5077770;28;20078;-63
2022/06/02 07:21:32;;;;;;;3.38;1.60;;;20.20;93.70;;;;;;5112345;28;20043;-64
2022/06/02 07:24:07;;;;;;;4.05;1.60;;;20.00;93.70;;;;;;5112138;28;20425;-63
2022/06/02 07:26:51;;;;;;;3.05;1.67;;;19.70;93.80;;;;;;5093734;28;20043;-65
2022/06/02 07:29:45;;;;;;;2.90;1.38;;;19.40;94.10;;;;;;5094041;28;20396;-65
2022/06/02 07:32:16;;;;;;;5.60;1.67;;;19.20;94.10;;;;;;5111907;28;20056;-71
2022/06/02 07:35:13;;;;;;;4.75;1.40;;;19.00;94.60;;;;;;5111736;28;20232;-65
2022/06/02 07:38:06;;;;;;;3.72;1.45;;;18.90;94.90;;;;;;5111876;28;20039;-66
2022/06/02 07:40:38;;;;;;;3.58;1.48;;;18.80;95.00;;;;;;5111900;28;20176;-65
2022/06/02 07:43:14;;;;;;;3.15;1.40;;;18.60;95.00;;;;;;5112160;28;20047;-64
2022/06/02 07:46:19;;;;;;;5.47;1.83;;;19.10;95.30;;;;;;5111800;28;20396;-66
2022/06/02 07:49:19;;;;;;;6.55;1.90;;;19.50;94.90;;;;;;5072512;28;20109;-68
2022/06/02 07:52:08;;;;;;;2.90;1.58;;;19.20;94.90;;;;;;5111468;28;20126;-64
2022/06/02 07:55:15;;;;;;;3.55;1.42;;;18.90;95.30;;;;;;5093234;28;20063;-64
2022/06/02 07:57:43;;;;;;;3.47;1.60;;;18.80;95.80;;;;;;5061475;28;20048;-64
2022/06/02 08:00:19;;;;;;;4.25;1.23;;;19.40;95.40;;;;;;5111771;28;20043;-64
2022/06/02 08:03:15;;;;;;;4.18;1.40;;;20.10;95.30;;;;;;5093123;28;20055;-64
2022/06/02 08:05:52;;;;;;;3.05;1.40;;;21.10;94.10;;;;;;5093455;28;20488;-65
2022/06/02 08:08:20;;;;;;;1.83;1.30;;;21.60;93.10;;;;;;5076256;28;20055;-65
2022/06/02 08:11:07;;;;;;;2.85;1.30;;;22.20;92.60;;;;;;5093257;28;20047;-64
2022/06/02 08:13:45;;;;;;;4.95;1.33;;;22.70;92.30;;;;;;5111117;28;20047;-64
2022/06/02 08:16:22;;;;;;;2.92;1.30;;;23.30;91.80;;;;;;5111541;28;20051;-65
2022/06/02 08:19:14;;;;;;;4.25;1.50;;;23.10;91.10;;;;;;5111375;28;20051;-65
2022/06/02 08:21:48;;;;;;;3.47;1.65;;;22.60;90.90;;;;;;5093219;28;20047;-65
2022/06/02 08:24:32;;;;;;;3.85;1.50;;;21.80;91.70;;;;;;5111747;28;20044;-64
2022/06/02 08:27:17;;;;;;;;;;;21.20;92.40;;;;;;5094120;28;20051;-64
2022/06/02 08:29:55;;;;;;;2.90;1.45;;;20.70;92.80;;;;;;5111352;28;20273;-64
2022/06/02 08:32:49;;;;;;;3.65;1.40;;;20.40;93.50;;;;;;5111664;28;20040;-66
2022/06/02 08:35:25;;;;;;;4.70;1.67;;;20.10;93.30;;;;;;5111326;28;20074;-64
2022/06/02 08:38:12;;;;;;;4.00;1.50;;;19.70;93.70;;;;;;5111241;28;20123;-70
2022/06/02 08:41:01;;;;;;;5.45;1.70;;;19.60;93.80;;;;;;5092969;28;20043;-66
2022/06/02 08:44:08;;;;;;;2.83;1.60;;;19.40;94.20;;;;;;5111655;28;20039;-66
2022/06/02 08:46:54;;;;;;;3.20;1.50;;;19.40;94.70;;;;;;5060907;28;20385;-66
2022/06/02 08:50:00;;;;;;;4.63;1.50;;;19.20;95.20;;;;;;5041890;28;20047;-68
2022/06/02 08:52:49;;;;;;;2.75;1.65;;;19.00;95.40;;;;;;5082345;28;20365;-66
2022/06/02 08:55:33;;;;;;;3.05;1.42;;;18.80;95.90;;;;;;5042247;28;20076;-65
2022/06/02 08:58:36;;;;;;;3.13;1.52;;;18.80;96.30;;;;;;5110936;28;20583;-66
2022/06/02 09:01:11;;;;;;;3.78;1.48;;;18.90;95.50;;;;;;5111383;28;20185;-67
2022/06/02 09:04:04;;;;;;;4.80;1.95;;;19.30;95.40;;;;;;5111015;28;20055;-67
2022/06/02 09:06:54;;;;;;;2.13;1.27;;;20.20;94.90;;;;;;5111340;28;20127;-67
2022/06/02 09:09:44;;;;;;;2.08;1.40;;;20.90;93.70;;;;;;5110889;28;20096;-66
2022/06/02 09:12:40;;;;;;;2.30;1.40;;;21.20;93.10;;;;;;5111492;28;20059;-66
2022/06/02 09:15:27;;;;;;;3.78;1.38;;;21.40;92.90;;;;;;5111189;28;20040;-67
2022/06/02 09:18:30;;;;;;;2.45;1.35;;;21.40;92.70;;;;;;5093040;28;20408;-66
2022/06/02 09:21:05;;;;;;;3.70;1.48;;;21.30;93.40;;;;;;5113003;28;20078;-66
2022/06/02 09:23:49;;;;;;;2.92;1.52;;;21.10;93.40;;;;;;5114923;28;20126;-65
2022/06/02 09:26:33;;;;;;;;;;;20.90;93.20;;;;;;5115264;28;20104;-66
2022/06/02 09:29:22;;;;;;;2.83;1.70;;;20.70;92.90;;;;;;5114178;28;20356;-69
2022/06/02 09:31:57;;;;;;;3.35;1.40;;;20.90;92.80;;;;;;5100889;28;20486;-65
2022/06/02 09:34:31;;;;;;;2.55;1.52;;;20.80;93.10;;;;;;5114544;28;20048;-65
2022/06/02 09:37:27;;;;;;;2.28;1.23;;;21.20;92.70;;;;;;5110787;28;20048;-68
2022/06/02 09:40:04;;;;;;;3.20;1.48;;;21.80;92.00;;;;;;5095872;28;20400;-66
2022/06/02 09:42:42;;;;;;;2.58;1.13;;;22.30;91.70;;;;;;5114155;28;20096;-66
2022/06/02 09:45:11;;;;;;;4.38;1.48;;;22.30;91.60;;;;;;5113946;28;20052;-66
2022/06/02 09:47:58;;;;;;;3.85;1.40;;;22.00;92.50;;;;;;5095300;28;20082;-65
2022/06/02 09:50:30;;;;;;;4.13;1.50;;;21.70;93.10;;;;;;5113411;28;20135;-66
2022/06/02 09:53:31;;;;;;;2.80;1.60;;;21.40;93.30;;;;;;5113320;28;20496;-65
2022/06/02 09:56:15;;;;;;;4.78;1.40;;;21.30;93.80;;;;;;5056729;28;20062;-65
2022/06/02 09:59:10;;;;;;;6.20;1.50;;;20.90;93.70;;;;;;5113272;28;20508;-66
2022/06/02 10:01:47;;;;;;;3.80;1.60;;;20.70;94.00;;;;;;5113865;28;20051;-68
2022/06/02 10:04:34;;;;;;;4.25;1.70;;;20.70;93.60;;;;;;5113907;28;20065;-69
2022/06/02 10:07:25;;;;;;;3.70;1.60;;;20.40;94.20;;;;;;5113172;28;20050;-65
2022/06/02 10:10:21;;;;;;;2.45;1.42;;;20.50;94.90;;;;;;5112468;28;20054;-65
2022/06/02 10:13:16;;;;;;;4.05;1.83;;;20.00;94.50;;;;;;5112885;28;20062;-67
2022/06/02 10:15:46;;;;;;;2.88;1.40;;;20.10;95.00;;;;;;5095648;28;20067;-66
2022/06/02 10:18:25;;;;;;;4.47;1.48;;;20.20;95.00;;;;;;5112941;28;20126;-65
2022/06/02 10:20:56;;;;;;;2.92;1.80;;;20.40;94.40;;;;;;5095788;28;20143;-70
2022/06/02 10:24:00;;;;;;;1.77;1.27;;;20.60;94.80;;;;;;5095226;28;20055;-65
2022/06/02 10:26:44;;;;;;;3.15;1.50;;;20.90;93.70;;;;;;5113165;28;20051;-65
2022/06/02 10:29:29;;;;;;;3.42;1.60;;;21.10;93.80;;;;;;5094960;28;20441;-66
2022/06/02 10:32:30;;;;;;;4.90;1.70;;;21.30;93.70;;;;;;5112183;28;20183;-65
2022/06/02 10:35:33;;;;;;;2.75;1.58;;;21.30;93.90;;;;;;5099113;28;20062;-64
2022/06/02 10:38:46;;;;;;;3.17;1.67;;;21.10;94.20;;;;;;5077998;28;20050;-65
2022/06/02 10:41:19;;;;;;;3.72;1.60;;;21.10;94.30;;;;;;5021897;28;20068;-66
2022/06/02 10:43:51;;;;;;;3.50;1.40;;;21.20;93.90;;;;;;5112849;28;20043;-68
2022/06/02 10:46:51;;;;;;;2.45;1.40;;;21.10;93.00;;;;;;5112831;28;20173;-66
2022/06/02 10:49:31;;;;;;;3.50;1.42;;;21.10;93.20;;;;;;5113192;28;20047;-66
2022/06/02 10:52:21;;;;;;;2.22;1.52;;;20.90;93.80;;;;;;5112590;28;20101;-65
2022/06/02 10:54:55;;;;;;;3.50;1.67;;;20.90;94.30;;;;;;5112732;28;20485;-65
2022/06/02 10:58:13;;;;;;;4.30;1.70;;;20.70;94.90;;;;;;5112903;28;20036;-64
2022/06/02 11:00:45;;;;;;;4.75;1.70;;;20.40;95.30;;;;;;5094733;28;20055;-65
2022/06/02 11:03:30;;;;;;;4.70;1.90;;;20.60;95.30;;;;;;5094327;28;20047;-66
2022/06/02 11:06:29;;;;;;;2.95;1.80;;;20.40;94.80;;;;;;5112281;28;20047;-67
2022/06/02 11:09:17;;;;;;;3.13;1.80;;;20.10;94.70;;;;;;5112015;28;20108;-65
2022/06/02 11:12:03;;;;;;;4.07;1.90;;;20.30;95.10;;;;;;5112493;28;20059;-65
2022/06/02 11:15:08;;;;;;;4.43;1.90;;;20.60;94.60;;;;;;5094304;28;20489;-65
2022/06/02 11:18:13;;;;;;;3.13;1.48;;;20.70;94.40;;;;;;5112745;28;20051;-65
2022/06/02 11:21:01;;;;;;;5.00;2.17;;;21.00;94.60;;;;;;5038979;28;20048;-64
2022/06/02 11:23:29;;;;;;;4.03;1.70;;;20.70;94.70;;;;;;5112329;28;20047;-65
2022/06/02 11:26:26;;;;;;;3.85;1.90;;;20.60;94.30;;;;;;5111958;28;20050;-73
2022/06/02 11:29:01;;;;;;;5.40;1.63;;;20.60;93.90;;;;;;5112297;28;20051;-65
2022/06/02 11:31:39;;;;;;;4.50;1.90;;;20.70;94.40;;;;;;5112186;28;20108;-65
2022/06/02 11:34:08;;;;;;;3.30;1.70;;;20.80;94.90;;;;;;5111877;28;20134;-66
2022/06/02 11:36:57;;;;;;;3.22;1.60;;;20.50;95.30;;;;;;5093925;28;20131;-65
2022/06/02 11:39:54;;;;;;;3.08;1.50;;;20.30;95.30;;;;;;5098774;28;20085;-65
2022/06/02 11:42:30;;;;;;;3.50;1.58;;;20.50;94.90;;;;;;5111199;28;20441;-65
2022/06/02 11:45:32;;;;;;;3.65;1.70;;;20.70;94.50;;;;;;5112017;28;20124;-74
2022/06/02 11:48:20;;;;;;;3.53;1.40;;;20.60;94.20;;;;;;5093399;28;20058;-74
2022/06/02 11:51:20;;;;;;;3.10;1.70;;;20.60;94.50;;;;;;5111857;28;20039;-67
2022/06/02 11:53:57;;;;;;;4.82;1.70;;;20.30;95.00;;;;;;5093856;28;20055;-65
2022/06/02 11:56:52;;;;;;;4.38;1.77;;;20.40;95.60;;;;;;5111497;28;20043;-67
2022/06/02 11:59:35;;;;;;;3.97;1.75;;;20.40;95.20;;;;;;5111582;28;20055;-65
2022/06/02 12:02:44;;;;;;;3.40;1.73;;;20.20;94.90;;;;;;5093362;28;20058;-65
2022/06/02 12:05:48;;;;;;;2.13;1.55;;;20.00;95.70;;;;;;5096525;28;20115;-65
2022/06/02 12:08:26;;;;;;;2.97;1.60;;;20.20;95.90;;;;;;5111293;28;20171;-66
2022/06/02 12:11:21;;;;;;;4.93;1.80;;;20.10;95.70;;;;;;5093568;28;20135;-64
2022/06/02 12:14:22;;;;;;;3.55;1.90;;;20.10;96.20;;;;;;5111682;28;20094;-65
2022/06/02 12:16:59;;;;;;;3.22;1.70;;;20.10;95.40;;;;;;5111601;28;20046;-65
2022/06/02 12:20:03;;;;;;;2.72;1.80;;;19.80;95.60;;;;;;5093391;28;20040;-65
2022/06/02 12:22:40;;;;;;;4.28;1.92;;;19.80;95.60;;;;;;5111611;28;20232;-65
2022/06/02 12:25:22;;;;;;;3.40;1.63;;;19.90;96.00;;;;;;5111045;28;20069;-67
2022/06/02 12:28:14;;;;;;;3.38;1.58;;;20.00;96.10;;;;;;5111018;28;20047;-67
2022/06/02 12:31:15;;;;;;;2.65;1.80;;;20.10;96.70;;;;;;5093539;28;20051;-64
2022/06/02 12:33:57;;;;;;;2.28;1.60;;;20.10;95.30;;;;;;5093318;28;20055;-65
2022/06/02 12:36:53;;;;;;;4.95;1.95;;;20.00;95.30;;;;;;5111006;28;20128;-65
2022/06/02 12:39:41;;;;;;;4.35;1.80;;;20.10;95.80;;;;;;5111327;28;20043;-65
2022/06/02 12:42:43;;;;;;;3.03;1.58;;;20.10;95.80;;;;;;5093038;28;20043;-65
2022/06/02 12:45:39;;;;;;;2.20;1.70;;;20.20;96.20;;;;;;5111025;28;20089;-65
2022/06/02 12:48:26;;;;;;;3.50;1.63;;;20.40;95.50;;;;;;5110956;28;20047;-74
2022/06/02 12:51:14;;;;;;;3.90;1.67;;;20.30;95.30;;;;;;5111407;28;20047;-64
2022/06/02 12:54:00;;;;;;;2.42;1.67;;;20.40;95.60;;;;;;5093426;28;20043;-68
2022/06/02 12:57:03;;;;;;;2.45;1.60;;;20.40;95.00;;;;;;5096727;28;20055;-65
2022/06/02 13:00:06;;;;;;;4.32;1.70;;;20.40;94.90;;;;;;5114834;28;20155;-65
2022/06/02 13:02:34;;;;;;;2.40;1.50;;;20.40;96.00;;;;;;5114900;28;20044;-66
2022/06/02 13:05:21;;;;;;;2.92;1.60;;;20.50;95.10;;;;;;5115021;28;20131;-64
2022/06/02 13:08:24;;;;;;;2.97;1.70;;;20.40;95.20;;;;;;5114994;28;20043;-67
2022/06/02 13:10:58;;;;;;;1.92;1.50;;;20.30;95.30;;;;;;5114782;28;20504;-66
2022/06/02 13:13:50;;;;;;;5.05;2.25;;;20.30;95.00;;;;;;5114459;28;20044;-65
2022/06/02 13:16:34;;;;;;;2.67;1.40;;;20.30;94.50;;;;;;5096531;28;20052;-64
2022/06/02 13:19:21;;;;;;;2.88;1.60;;;20.00;95.10;;;;;;5114861;28;20050;-64
2022/06/02 13:21:58;;;;;;;3.58;1.45;;;19.80;95.70;;;;;;5114907;28;20055;-65
2022/06/02 13:24:33;;;;;;;2.40;1.48;;;19.90;95.40;;;;;;5114254;28;20066;-66
2022/06/02 13:27:05;;;;;;;3.10;1.40;;;19.70;94.90;;;;;;5114871;28;20445;-66
2022/06/02 13:30:09;;;;;;;2.85;1.80;;;19.70;95.70;;;;;;5114178;28;20346;-65
2022/06/02 13:33:18;;;;;;;2.50;1.40;;;19.80;95.40;;;;;;5096361;28;20051;-68
2022/06/02 13:36:16;;;;;;;2.05;1.50;;;20.00;95.10;;;;;;5109286;28;20523;-68
2022/06/02 13:39:24;;;;;;;3.15;1.52;;;20.10;95.50;;;;;;5113663;28;20055;-65
2022/06/02 13:42:11;;;;;;;3.38;1.80;;;20.10;95.10;;;;;;5114432;28;20127;-65
2022/06/02 13:45:05;;;;;;;3.05;1.52;;;20.20;95.30;;;;;;5095830;28;20095;-64
2022/06/02 13:48:22;;;;;;;2.92;1.52;;;20.30;94.80;;;;;;5113846;28;20203;-65
2022/06/02 13:51:38;;;;;;;2.78;1.95;;;20.40;95.30;;;;;;5114077;28;20123;-65
2022/06/02 13:57:41;;;;;;;3.40;1.60;;;20.10;96.00;;;;;;5113818;28;20047;-64
2022/06/02 14:00:28;;;;;;;3.63;1.70;;;19.90;96.40;;;;;;5114320;28;20087;-62
2022/06/02 14:03:08;;;;;;;3.88;1.80;;;19.90;96.00;;;;;;5114358;28;20109;-64
2022/06/02 14:06:05;;;;;;;3.58;1.65;;;19.80;96.20;;;;;;5113048;28;20658;-64
2022/06/02 14:09:03;;;;;;;2.35;1.50;;;19.90;95.90;;;;;;5113640;28;20065;-66
2022/06/02 14:11:42;;;;;;;2.15;1.40;;;20.00;96.80;;;;;;5113422;28;20060;-64
2022/06/02 14:14:28;;;;;;;1.98;1.33;;;20.10;95.90;;;;;;5113987;28;20097;-64
2022/06/02 14:17:23;;;;;;;2.10;1.40;;;20.10;95.80;;;;;;5095947;28;20051;-64
2022/06/02 14:20:28;;;;;;;3.63;1.60;;;20.10;95.70;;;;;;5113739;28;20044;-64
2022/06/02 14:23:19;;;;;;;4.78;1.80;;;20.00;95.50;;;;;;5113203;28;20047;-64
2022/06/02 14:26:20;;;;;;;5.32;1.65;;;20.00;95.90;;;;;;5113520;28;20062;-65
2022/06/02 14:28:55;;;;;;;3.53;1.70;;;20.00;96.10;;;;;;5113478;28;20048;-67
2022/06/02 14:31:33;;;;;;;5.18;1.70;;;20.00;95.90;;;;;;5112806;28;20043;-64
2022/06/02 14:34:25;;;;;;;5.47;1.70;;;20.00;96.10;;;;;;5095091;28;20538;-64
2022/06/02 14:37:13;;;;;;;3.28;1.50;;;20.00;96.30;;;;;;5113215;28;20039;-64